Time;durP1;ratioP1;P1;durP2;ratioP2;P2;SDS_P1;SDS_P2;PMS_P1;PMS_P2;Temp;Humidity;BMP_temperature;BMP_pressure;BME280_temperature;BME280_humidity;BME280_pressure;Samples;Min_cycle;Max_cycle;Signal;HPM_P1;HPM_P2
2021/06/02 00:02:12;;;;;;;;;;;11.80;99.90;;;;;;5037350;28;19913;-61
2021/06/02 00:04:42;;;;;;;;;;;11.80;99.90;;;;;;5038982;28;20143;-61
2021/06/02 00:07:09;;;;;;;;;;;11.80;99.90;;;;;;5041147;28;19909;-60
2021/06/02 00:09:35;;;;;;;;;;;11.80;99.90;;;;;;5031675;28;20310;-59
2021/06/02 00:12:04;;;;;;;;;;;11.80;99.90;;;;;;5030117;28;19909;-59
2021/06/02 00:14:30;;;;;;;;;;;11.80;99.90;;;;;;5045642;28;19948;-60
2021/06/02 00:16:56;;;;;;;;;;;11.80;99.90;;;;;;5049352;28;19944;-59
2021/06/02 00:19:22;;;;;;;;;;;11.70;99.90;;;;;;5043921;28;19909;-60
2021/06/02 00:21:48;;;;;;;;;;;11.70;99.90;;;;;;5048508;28;20375;-60
2021/06/02 00:24:14;;;;;;;;;;;11.70;99.90;;;;;;5039146;28;20003;-59
2021/06/02 00:26:40;;;;;;;;;;;11.70;99.90;;;;;;5033833;28;19951;-60
2021/06/02 00:29:07;;;;;;;;;;;11.70;99.90;;;;;;5049418;28;20436;-59
2021/06/02 00:31:33;;;;;;;;;;;11.70;99.90;;;;;;5049197;28;19944;-59
2021/06/02 00:34:02;;;;;;;;;;;11.60;99.90;;;;;;5049585;28;19916;-58
2021/06/02 00:36:28;;;;;;;;;;;11.60;99.90;;;;;;5049551;28;19916;-59
2021/06/02 00:38:54;;;;;;;;;;;11.60;99.90;;;;;;5047639;28;19909;-58
2021/06/02 00:41:20;;;;;;;;;;;11.60;99.90;;;;;;5048094;28;19909;-60
2021/06/02 00:43:49;;;;;;;;;;;11.60;99.90;;;;;;5049454;28;20012;-60
2021/06/02 00:46:15;;;;;;;;;;;11.60;99.90;;;;;;5047630;28;19970;-56
2021/06/02 00:48:41;;;;;;;;;;;11.60;99.90;;;;;;5049025;28;19913;-59
2021/06/02 00:51:07;;;;;;;;;;;11.60;99.90;;;;;;5046948;28;20467;-60
2021/06/02 00:53:34;;;;;;;;;;;11.60;99.90;;;;;;5048606;28;19940;-60
2021/06/02 00:56:04;;;;;;;;;;;11.60;99.90;;;;;;5047562;28;19909;-61
2021/06/02 00:58:30;;;;;;;;;;;11.70;99.90;;;;;;5037908;28;19913;-60
2021/06/02 01:00:56;;;;;;;;;;;11.60;99.90;;;;;;5045578;28;19919;-59
2021/06/02 01:03:22;;;;;;;;;;;11.60;99.90;;;;;;5031345;28;19906;-60
2021/06/02 01:05:49;;;;;;;;;;;11.60;99.90;;;;;;5043424;28;19959;-61
2021/06/02 01:08:19;;;;;;;;;;;11.70;99.90;;;;;;5045358;28;19912;-59
2021/06/02 01:10:45;;;;;;;;;;;11.70;99.90;;;;;;5048265;28;19951;-59
2021/06/02 01:13:11;;;;;;;;;;;11.60;99.90;;;;;;5048632;28;19937;-60
2021/06/02 01:15:38;;;;;;;;;;;11.60;99.90;;;;;;5049150;28;20334;-58
2021/06/02 01:18:03;;;;;;;;;;;11.70;99.90;;;;;;5042950;28;19952;-59
2021/06/02 01:20:29;;;;;;;;;;;11.60;99.90;;;;;;5048385;28;19959;-58
2021/06/02 01:22:55;;;;;;;;;;;11.60;99.90;;;;;;5047385;28;19920;-59
2021/06/02 01:25:23;;;;;;;;;;;11.60;99.90;;;;;;5048842;28;19909;-60
2021/06/02 01:27:48;;;;;;;;;;;11.60;99.90;;;;;;5047274;28;19909;-59
2021/06/02 01:30:16;;;;;;;;;;;11.60;99.90;;;;;;5044818;28;20074;-58
2021/06/02 01:33:00;;;;;;;;;;;11.60;99.90;;;;;;5047568;28;19996;-59
2021/06/02 01:35:35;;;;;;;;;;;11.50;99.90;;;;;;5048993;28;19908;-59
2021/06/02 01:38:03;;;;;;;;;;;11.60;99.90;;;;;;5047707;28;19909;-59
2021/06/02 01:40:47;;;;;;;;;;;11.60;99.90;;;;;;5047603;28;19916;-58
2021/06/02 01:43:31;;;;;;;;;;;11.60;99.90;;;;;;5048848;28;20348;-60
2021/06/02 01:46:15;;;;;;;;;;;11.50;99.90;;;;;;5047491;28;19999;-60
2021/06/02 01:48:41;;;;;;;;;;;11.50;99.90;;;;;;5048307;28;20386;-59
2021/06/02 01:51:25;;;;;;;;;;;11.50;99.90;;;;;;5047641;28;19917;-60
2021/06/02 01:53:50;;;;;;;;;;;11.50;99.90;;;;;;5047574;28;19909;-59
2021/06/02 01:56:32;;;;;;;;;;;11.50;99.90;;;;;;5048643;28;19909;-60
2021/06/02 01:59:10;;;;;;;;;;;11.50;99.90;;;;;;5048450;28;19909;-59
2021/06/02 02:01:44;;;;;;;;;;;11.40;99.90;;;;;;5037144;28;19916;-60
2021/06/02 02:04:20;;;;;;;;;;;11.50;99.90;;;;;;5033951;28;20427;-59
2021/06/02 02:07:13;;;;;;;;;;;11.40;99.90;;;;;;5048656;28;19963;-59
2021/06/02 02:09:50;;;;;;;;;;;11.40;99.90;;;;;;5051447;28;19909;-58
2021/06/02 02:12:16;;;;;;;;;;;11.40;99.90;;;;;;5051714;28;20403;-60
2021/06/02 02:14:49;;;;;;;;;;;11.30;99.90;;;;;;5050312;28;19909;-60
2021/06/02 02:17:30;;;;;;;;;;;11.30;99.90;;;;;;5041297;28;19987;-60
2021/06/02 02:20:12;;;;;;;;;;;11.30;99.90;;;;;;5024830;28;20019;-58
2021/06/02 02:22:37;;;;;;;;;;;11.20;99.90;;;;;;5050363;28;20588;-60
2021/06/02 02:25:09;;;;;;;;;;;11.20;99.90;;;;;;5029648;28;19913;-60
2021/06/02 02:27:54;;;;;;;;;;;11.10;99.90;;;;;;5026972;28;19913;-58
2021/06/02 02:30:26;;;;;;;;;;;11.10;99.90;;;;;;5031104;28;20354;-59
2021/06/02 02:33:10;;;;;;;;;;;11.00;99.90;;;;;;5031509;28;20012;-60
2021/06/02 02:35:38;;;;;;;;;;;11.00;99.90;;;;;;5025902;28;19953;-60
2021/06/02 02:38:06;;;;;;;;;;;11.00;99.90;;;;;;5031802;28;19917;-59
2021/06/02 02:40:50;;;;;;;;;;;11.00;99.90;;;;;;5030998;28;19995;-60
2021/06/02 02:43:37;;;;;;;;;;;11.00;99.90;;;;;;5031185;28;20011;-57
2021/06/02 02:46:18;;;;;;;;;;;11.00;99.90;;;;;;5034475;28;20046;-59
2021/06/02 02:48:46;;;;;;;;;;;11.00;99.90;;;;;;5031200;28;20418;-58
2021/06/02 02:51:17;;;;;;;;;;;11.00;99.90;;;;;;5030067;28;20504;-60
2021/06/02 02:54:02;;;;;;;;;;;11.10;99.90;;;;;;5043666;22;19936;-78
2021/06/02 02:56:40;;;;;;;;;;;11.00;99.90;;;;;;5034550;28;19908;-79
2021/06/02 02:59:33;;;;;;;;;;;11.00;99.90;;;;;;5031441;28;19909;-79
2021/06/02 03:08:19;;;;;;;;;;;11.10;99.90;;;;;;5031955;28;19909;-78
2021/06/02 03:11:03;;;;;;;;;;;11.10;99.90;;;;;;5025089;28;19917;-76
2021/06/02 03:13:45;;;;;;;;;;;11.10;99.90;;;;;;5014414;28;19940;-78
2021/06/02 03:16:29;;;;;;;;;;;;;;;;;;;;;
2021/06/02 03:19:21;;;;;;;;;;;11.10;99.90;;;;;;5014722;28;19917;-77
2021/06/02 03:22:06;;;;;;;;;;;11.10;99.90;;;;;;5026897;28;19975;-77
2021/06/02 03:24:52;;;;;;;;;;;11.00;99.90;;;;;;5013246;28;20304;-78
2021/06/02 03:27:29;;;;;;;;;;;11.00;99.90;;;;;;5018702;28;19917;-79
2021/06/02 03:30:00;;;;;;;;;;;10.90;99.90;;;;;;5014348;28;19920;-78
2021/06/02 03:32:41;;;;;;;;;;;11.00;99.90;;;;;;5013717;28;20019;-79
2021/06/02 03:35:12;;;;;;;;;;;10.90;99.90;;;;;;5027647;28;19949;-77
2021/06/02 03:37:38;;;;;;;;;;;10.90;99.90;;;;;;5014123;28;20087;-77
2021/06/02 03:40:17;;;;;;;;;;;10.90;99.90;;;;;;5012640;28;20570;-79
2021/06/02 03:42:48;;;;;;;;;;;10.90;99.90;;;;;;5013438;28;20172;-79
2021/06/02 03:45:20;;;;;;;;;;;10.90;99.90;;;;;;5008648;28;19910;-78
2021/06/02 03:47:53;;;;;;;;;;;10.90;99.90;;;;;;5031335;28;19920;-78
2021/06/02 03:50:20;;;;;;;;;;;11.00;99.90;;;;;;5037627;28;20122;-78
2021/06/02 03:52:49;;;;;;;;;;;11.00;99.90;;;;;;5021275;28;19917;-77
2021/06/02 03:55:33;;;;;;;;;;;11.00;99.90;;;;;;5011453;28;19916;-77
2021/06/02 03:58:00;;;;;;;;;;;11.00;99.90;;;;;;5009860;28;20437;-78
2021/06/02 04:00:35;;;;;;;;;;;11.00;99.90;;;;;;5009573;28;20282;-77
2021/06/02 04:03:01;;;;;;;;;;;11.00;99.90;;;;;;5014922;28;20447;-79
2021/06/02 04:05:45;;;;;;;;;;;11.00;99.90;;;;;;5011415;28;19992;-77
2021/06/02 04:08:14;;;;;;;;;;;11.00;99.90;;;;;;5009423;28;19909;-80
2021/06/02 04:10:44;;;;;;;;;;;11.00;99.90;;;;;;5010524;28;19913;-78
2021/06/02 04:13:16;;;;;;;;;;;11.00;99.90;;;;;;5023698;28;19924;-78
2021/06/02 04:15:42;;;;;;;;;;;11.10;99.90;;;;;;5005447;28;19918;-78
2021/06/02 04:18:09;;;;;;;;;;;11.10;99.90;;;;;;5021338;28;19916;-77
2021/06/02 04:20:35;;;;;;;;;;;11.10;99.90;;;;;;5009243;28;19917;-78
2021/06/02 04:23:02;;;;;;;;;;;11.10;99.90;;;;;;5010923;28;19936;-77
2021/06/02 04:25:30;;;;;;;;;;;11.10;99.90;;;;;;5008282;28;19910;-77
2021/06/02 04:27:55;;;;;;;;;;;11.20;99.90;;;;;;5009191;28;19993;-77
2021/06/02 04:30:23;;;;;;;;;;;11.10;99.90;;;;;;5013413;28;20399;-78
2021/06/02 04:32:49;;;;;;;;;;;11.10;99.90;;;;;;5016317;28;19948;-78
2021/06/02 04:35:16;;;;;;;;;;;11.10;99.90;;;;;;5015702;28;19936;-77
2021/06/02 04:37:41;;;;;;;;;;;11.10;99.90;;;;;;5011362;28;19910;-77
2021/06/02 04:40:08;;;;;;;;;;;11.10;99.90;;;;;;5009781;28;19992;-78
2021/06/02 04:42:34;;;;;;;;;;;11.20;99.90;;;;;;5015938;28;19913;-79
2021/06/02 04:45:00;;;;;;;;;;;11.20;99.90;;;;;;5020549;28;19913;-78
2021/06/02 04:47:26;;;;;;;;;;;11.30;99.90;;;;;;5010990;28;19918;-78
2021/06/02 04:50:04;;;;;;;;;;;11.30;99.90;;;;;;5009462;28;19925;-78
2021/06/02 04:52:32;;;;;;;;;;;11.30;99.90;;;;;;4998194;28;19972;-80
2021/06/02 04:55:10;;;;;;;;;;;11.30;99.90;;;;;;5014185;28;20000;-79
2021/06/02 04:57:47;;;;;;;;;;;11.40;99.90;;;;;;5004356;28;20482;-78
2021/06/02 05:00:21;;;;;;;;;;;11.50;99.90;;;;;;5019245;28;19940;-79
2021/06/02 05:02:49;;;;;;;;;;;11.60;99.90;;;;;;4999526;28;19910;-78
2021/06/02 05:05:18;;;;;;;;;;;11.70;99.90;;;;;;5009764;28;19910;-79
2021/06/02 05:08:02;;;;;;;;;;;11.80;99.90;;;;;;5009967;28;19917;-77
2021/06/02 05:10:46;;;;;;;;;;;11.80;99.90;;;;;;5005310;28;19921;-80
2021/06/02 05:13:34;;;;;;;;;;;11.80;99.90;;;;;;5015202;28;20059;-79
2021/06/02 05:15:59;;;;;;;;;;;11.80;99.90;;;;;;5015637;28;19914;-79
2021/06/02 05:18:43;;;;;;;;;;;11.80;99.90;;;;;;5016137;28;19916;-79
2021/06/02 05:23:51;;;;;;;;;;;11.90;99.90;;;;;;5010989;28;19964;-79
2021/06/02 05:26:35;;;;;;;;;;;11.90;99.90;;;;;;5012262;28;19945;-78
2021/06/02 05:29:13;;;;;;;;;;;11.90;99.90;;;;;;5016896;28;19909;-80
2021/06/02 05:31:41;;;;;;;;;;;11.90;99.90;;;;;;5011944;28;20599;-81
2021/06/02 05:34:33;;;;;;;;;;;12.00;99.90;;;;;;5027042;28;20245;-78
2021/06/02 05:37:18;;;;;;;;;;;12.10;99.90;;;;;;5015209;28;20343;-78
2021/06/02 05:39:52;;;;;;;;;;;12.20;99.90;;;;;;5010958;28;19909;-80
2021/06/02 05:42:22;;;;;;;;;;;12.20;99.90;;;;;;5009471;28;19920;-78
2021/06/02 05:44:53;;;;;;;;;;;12.20;99.90;;;;;;5013588;28;19914;-78
2021/06/02 05:47:44;;;;;;;;;;;12.30;99.90;;;;;;5048385;22;19925;-78
2021/06/02 05:50:27;;;;;;;;;;;12.30;99.90;;;;;;5053852;28;19929;-79
2021/06/02 05:53:28;;;;;;;;;;;12.40;99.90;;;;;;5042518;28;19913;-79
2021/06/02 05:59:49;;;;;;;;;;;12.80;99.90;;;;;;5034035;28;19998;-78
2021/06/02 06:02:38;;;;;;;;;;;12.80;99.90;;;;;;5038636;28;20047;-79
2021/06/02 06:05:44;;;;;;;;;;;12.90;99.90;;;;;;5031125;28;19917;-79
2021/06/02 06:12:25;;;;;;;;;;;13.30;99.90;;;;;;5057454;28;20499;-81
2021/06/02 06:15:09;;;;;;;;;;;13.60;99.90;;;;;;5032542;28;19909;-79
2021/06/02 06:17:56;;;;;;;;;;;13.90;99.90;;;;;;5021560;28;20570;-80
2021/06/02 06:20:53;;;;;;;;;;;;;;;;;;;;;
2021/06/02 06:23:43;;;;;;;;;;;14.50;99.90;;;;;;5014590;28;19987;-79
2021/06/02 06:26:36;;;;;;;;;;;14.60;99.90;;;;;;5032213;28;19909;-80
2021/06/02 06:32:29;;;;;;;;;;;14.70;99.90;;;;;;5031589;28;19984;-80
2021/06/02 06:35:08;;;;;;;;;;;14.80;99.90;;;;;;5030069;28;19909;-80
2021/06/02 06:38:00;;;;;;;;;;;14.90;99.90;;;;;;5032794;28;19924;-79
2021/06/02 06:40:59;;;;;;;;;;;15.10;99.90;;;;;;5034936;28;20347;-77
2021/06/02 06:43:44;;;;;;;;;;;15.40;99.90;;;;;;5041158;28;20004;-79
2021/06/02 06:50:18;;;;;;;;;;;15.80;99.90;;;;;;4941394;28;19941;-81
2021/06/02 06:53:29;;;;;;;;;;;;;;;;;;;;;
2021/06/02 06:56:08;;;;;;;;;;;16.30;99.90;;;;;;4827768;29;20482;-79
2021/06/02 06:58:46;;;;;;;;;;;;;;;;;;;;;
2021/06/02 07:01:34;;;;;;;;;;;16.50;99.90;;;;;;4949862;28;19914;-80
2021/06/02 07:04:22;;;;;;;;;;;16.60;99.90;;;;;;4939251;28;20005;-78
2021/06/02 07:07:10;;;;;;;;;;;16.80;99.90;;;;;;4952797;28;19994;-78
2021/06/02 07:09:50;;;;;;;;;;;16.90;99.90;;;;;;4944570;28;20451;-80
2021/06/02 07:19:05;;;;;;;;;;;17.20;99.90;;;;;;4990035;28;19926;-80
2021/06/02 07:21:57;;;;;;;;;;;17.50;99.90;;;;;;5023853;28;20000;-81
2021/06/02 07:24:38;;;;;;;;;;;17.60;99.90;;;;;;5027322;28;20280;-79
2021/06/02 07:27:06;;;;;;;;;;;17.60;99.90;;;;;;5028249;28;19983;-77
2021/06/02 07:30:28;;;;;;;;;;;17.80;99.90;;;;;;5032734;28;20427;-79
2021/06/02 07:39:41;;;;;;;;;;;18.20;99.90;;;;;;5033616;28;20386;-79
2021/06/02 07:42:33;;;;;;;;;;;;;;;;;;;;;
2021/06/02 07:48:51;;;;;;;;;;;17.80;99.90;;;;;;4980300;28;19917;-80
2021/06/02 07:51:28;;;;;;;;;;;18.10;99.90;;;;;;4981572;28;20712;-80
2021/06/02 07:54:35;;;;;;;;;;;18.30;99.90;;;;;;4965387;28;19965;-80
2021/06/02 08:06:57;;;;;;;;;;;;;;;;;;;;;
2021/06/02 08:10:03;;;;;;;;;;;18.80;98.70;;;;;;4933806;28;19915;-81
2021/06/02 08:18:52;;;;;;;;;;;;;;;;;;;;;
2021/06/02 08:21:42;;;;;;;;;;;19.90;97.60;;;;;;4991390;28;19913;-80
2021/06/02 08:24:31;;;;;;;;;;;;;;;;;;;;;
2021/06/02 08:27:26;;;;;;;;;;;20.40;94.20;;;;;;4983374;28;19911;-80
2021/06/02 08:30:28;;;;;;;;;;;20.40;91.70;;;;;;5031145;28;19916;-80
2021/06/02 08:33:15;;;;;;;;;;;20.30;91.60;;;;;;5006958;28;19988;-80
2021/06/02 08:35:47;;;;;;;;;;;20.30;90.90;;;;;;5027870;28;19921;-79
2021/06/02 08:41:52;;;;;;;;;;;20.40;88.80;;;;;;5020226;28;19959;-80
2021/06/02 08:44:46;;;;;;;;;;;20.60;87.20;;;;;;5033264;28;20296;-77
2021/06/02 08:50:28;;;;;;;;;;;20.30;88.40;;;;;;5007425;28;19966;-77
2021/06/02 08:53:28;;;;;;;;;;;;;;;;;;;;;
2021/06/02 08:59:51;;;;;;;;;;;;;;;;;;;;;
2021/06/02 09:02:35;;;;;;;;;;;21.30;84.10;;;;;;5019332;28;19910;-79
2021/06/02 09:08:48;;;;;;;;;;;;;;;;;;;;;
2021/06/02 09:17:26;;;;;;;;;;;21.50;82.70;;;;;;5020401;28;19913;-78
2021/06/02 09:20:03;;;;;;;;;;;21.50;80.40;;;;;;5034370;28;19909;-78
2021/06/02 09:25:38;;;;;;;;;;;21.10;80.70;;;;;;5009258;28;19916;-77
2021/06/02 09:28:16;;;;;;;;;;;21.10;80.40;;;;;;5030191;28;19909;-77
2021/06/02 09:31:04;;;;;;;;;;;21.30;80.90;;;;;;5028210;28;19920;-78
2021/06/02 09:42:46;;;;;;;;;;;20.80;85.20;;;;;;5037577;28;19971;-77
2021/06/02 09:45:18;;;;;;;;;;;20.70;83.90;;;;;;5031873;28;19909;-79
2021/06/02 09:48:19;;;;;;;;;;;20.60;84.90;;;;;;5032844;28;19945;-80
2021/06/02 09:51:03;;;;;;;;;;;20.60;87.30;;;;;;5034078;28;20356;-78
2021/06/02 09:54:13;;;;;;;;;;;;;;;;;;;;;
2021/06/02 09:57:02;;;;;;;;;;;20.80;85.70;;;;;;5027634;28;19910;-75
2021/06/02 10:03:29;;;;;;;;;;;;;;;;;;;;;
2021/06/02 10:06:47;;;;;;;;;;;;;;;;;;;;;
2021/06/02 10:12:33;;;;;;;;;;;21.10;82.20;;;;;;4907214;29;19958;-77
2021/06/02 10:15:36;;;;;;;;;;;20.90;84.90;;;;;;4927905;29;19927;-77
2021/06/02 10:21:30;;;;;;;;;;;21.30;84.40;;;;;;4935483;29;19973;-77
2021/06/02 10:24:04;;;;;;;;;;;21.50;84.70;;;;;;4922796;29;19957;-78
2021/06/02 10:29:48;;;;;;;;;;;21.70;82.70;;;;;;4900231;29;20007;-76
2021/06/02 10:32:38;;;;;;;;;;;22.10;82.50;;;;;;4993618;28;19916;-79
2021/06/02 10:38:10;;;;;;;;;;;22.30;82.40;;;;;;4997151;28;20545;-77
2021/06/02 10:41:18;;;;;;;;;;;;;;;;;;;;;
2021/06/02 10:46:43;;;;;;;;;;;22.80;79.40;;;;;;5022495;28;19916;-78
2021/06/02 10:49:14;;;;;;;;;;;22.50;80.00;;;;;;5034812;28;19920;-78
2021/06/02 10:51:56;;;;;;;;;;;22.40;77.30;;;;;;5032990;28;19921;-80
2021/06/02 10:54:41;;;;;;;;;;;22.50;76.70;;;;;;5035550;28;19916;-79
2021/06/02 10:57:29;;;;;;;;;;;22.50;76.60;;;;;;5033634;28;19914;-80
2021/06/02 11:00:11;;;;;;;;;;;22.50;77.90;;;;;;5030219;28;19909;-76
2021/06/02 11:02:57;;;;;;;;;;;;;;;;;;;;;
2021/06/02 11:05:40;;;;;;;;;;;23.00;77.40;;;;;;5017158;28;19917;-78
2021/06/02 11:08:11;;;;;;;;;;;23.10;76.80;;;;;;5045293;28;19909;-78
2021/06/02 11:10:36;;;;;;;;;;;23.30;74.20;;;;;;5031734;28;19917;-77
2021/06/02 11:16:05;;;;;;;;;;;23.70;71.90;;;;;;5032525;28;19921;-77
2021/06/02 11:18:36;;;;;;;;;;;23.20;71.90;;;;;;5034887;28;19961;-78
2021/06/02 11:21:16;;;;;;;;;;;23.00;72.80;;;;;;5030601;28;20007;-79
2021/06/02 11:24:09;;;;;;;;;;;;;;;;;;;;;
2021/06/02 11:26:35;;;;;;;;;;;22.90;75.70;;;;;;5032399;28;19975;-78
2021/06/02 11:29:15;;;;;;;;;;;23.10;73.80;;;;;;5028275;28;19914;-79
2021/06/02 11:31:42;;;;;;;;;;;23.30;73.80;;;;;;5022422;28;20427;-78
2021/06/02 11:34:54;;;;;;;;;;;23.10;71.00;;;;;;5032495;28;19916;-80
2021/06/02 11:40:28;;;;;;;;;;;22.40;71.80;;;;;;5020366;28;19913;-78
2021/06/02 11:42:56;;;;;;;;;;;22.40;71.60;;;;;;5019633;28;19909;-80
2021/06/02 11:45:41;;;;;;;;;;;22.70;72.00;;;;;;5030907;28;19909;-81
2021/06/02 11:48:29;;;;;;;;;;;;;;;;;;;;;
2021/06/02 11:51:23;;;;;;;;;;;23.00;71.40;;;;;;5032055;28;19959;-77
2021/06/02 11:53:54;;;;;;;;;;;22.90;68.80;;;;;;5032755;28;20491;-79
2021/06/02 11:56:19;;;;;;;;;;;22.80;71.10;;;;;;5033382;28;19913;-79
2021/06/02 11:58:48;;;;;;;;;;;22.80;70.70;;;;;;5030469;28;19909;-77
2021/06/02 12:01:21;;;;;;;;;;;22.70;70.20;;;;;;5030896;28;20063;-77
2021/06/02 12:03:52;;;;;;;;;;;22.50;71.30;;;;;;5029248;28;19909;-77
2021/06/02 12:06:25;;;;;;;;;;;22.50;72.20;;;;;;5026571;28;20012;-78
2021/06/02 12:08:57;;;;;;;;;;;22.70;73.40;;;;;;5026155;28;19913;-78
2021/06/02 12:11:25;;;;;;;;;;;22.80;72.70;;;;;;5027550;28;19921;-76
2021/06/02 12:13:51;;;;;;;;;;;23.10;73.20;;;;;;5032039;28;19909;-78
2021/06/02 12:16:22;;;;;;;;;;;23.00;71.40;;;;;;5027221;28;20029;-79
2021/06/02 12:18:48;;;;;;;;;;;23.00;73.00;;;;;;5026994;28;19931;-77
2021/06/02 12:21:27;;;;;;;;;;;22.90;71.80;;;;;;5024300;28;20368;-77
2021/06/02 12:24:06;;;;;;;;;;;22.90;70.70;;;;;;5031160;28;20295;-78
2021/06/02 12:26:40;;;;;;;;;;;23.00;71.90;;;;;;5022594;28;20388;-77
2021/06/02 12:29:07;;;;;;;;;;;23.20;71.50;;;;;;5032816;28;19940;-77
2021/06/02 12:31:35;;;;;;;;;;;23.30;70.60;;;;;;5028374;28;19913;-77
2021/06/02 12:34:06;;;;;;;;;;;23.60;69.80;;;;;;5029685;28;19913;-78
2021/06/02 12:36:32;;;;;;;;;;;23.80;71.80;;;;;;5029744;28;19960;-76
2021/06/02 12:39:02;;;;;;;;;;;24.00;68.90;;;;;;5020805;28;19909;-78
2021/06/02 12:41:28;;;;;;;;;;;24.00;69.60;;;;;;5028201;28;19910;-77
2021/06/02 12:43:53;;;;;;;;;;;24.00;68.30;;;;;;5016660;28;20266;-78
2021/06/02 12:46:19;;;;;;;;;;;24.10;70.10;;;;;;5028420;28;19959;-78
2021/06/02 12:48:45;;;;;;;;;;;24.20;69.30;;;;;;5028205;28;19909;-78
2021/06/02 12:51:17;;;;;;;;;;;24.30;69.50;;;;;;5026011;28;19967;-78
2021/06/02 12:53:45;;;;;;;;;;;24.40;69.60;;;;;;5021038;28;19909;-78
2021/06/02 12:56:11;;;;;;;;;;;24.60;67.60;;;;;;5027006;28;20004;-79
2021/06/02 12:58:37;;;;;;;;;;;24.50;66.40;;;;;;5026492;28;20515;-78
2021/06/02 13:01:04;;;;;;;;;;;24.60;67.20;;;;;;5015638;28;19909;-79
2021/06/02 13:03:30;;;;;;;;;;;24.60;68.90;;;;;;5029860;28;19941;-78
2021/06/02 13:05:56;;;;;;;;;;;24.80;65.80;;;;;;5031432;28;19913;-79
2021/06/02 13:08:25;;;;;;;;;;;24.90;67.30;;;;;;5025736;28;19912;-81
2021/06/02 13:10:51;;;;;;;;;;;24.90;66.70;;;;;;5029888;28;19920;-80
2021/06/02 13:13:17;;;;;;;;;;;24.70;66.00;;;;;;5031350;28;19909;-77
2021/06/02 13:15:53;;;;;;;;;;;24.60;66.00;;;;;;5031370;28;20302;-77
2021/06/02 13:18:20;;;;;;;;;;;24.80;66.10;;;;;;5026403;28;19924;-78
2021/06/02 13:20:46;;;;;;;;;;;25.00;65.90;;;;;;5028603;28;19944;-77
2021/06/02 13:23:12;;;;;;;;;;;25.00;66.20;;;;;;5025674;28;20042;-77
2021/06/02 13:25:37;;;;;;;;;;;24.90;65.80;;;;;;5013015;28;20475;-77
2021/06/02 13:28:03;;;;;;;;;;;24.90;67.00;;;;;;5019887;28;19921;-78
2021/06/02 13:30:45;;;;;;;;;;;24.80;65.90;;;;;;5025591;28;19943;-76
2021/06/02 13:33:13;;;;;;;;;;;24.80;67.40;;;;;;5021471;28;20346;-77
2021/06/02 13:35:39;;;;;;;;;;;24.90;68.00;;;;;;5016968;28;19926;-79
2021/06/02 13:38:04;;;;;;;;;;;25.00;68.30;;;;;;5026521;28;20618;-77
2021/06/02 13:40:31;;;;;;;;;;;25.10;66.90;;;;;;5026913;28;20048;-77
2021/06/02 13:43:01;;;;;;;;;;;25.00;66.40;;;;;;5029874;28;19916;-76
2021/06/02 13:45:40;;;;;;;;;;;25.10;67.90;;;;;;5032653;28;20355;-76
2021/06/02 13:48:24;;;;;;;;;;;25.20;66.00;;;;;;5012602;28;19953;-76
2021/06/02 13:50:50;;;;;;;;;;;25.10;66.40;;;;;;5010312;28;19964;-76
2021/06/02 13:53:15;;;;;;;;;;;25.00;67.70;;;;;;5029484;28;19909;-77
2021/06/02 13:55:53;;;;;;;;;;;24.90;68.00;;;;;;5030267;28;19972;-75
2021/06/02 13:58:18;;;;;;;;;;;24.90;67.50;;;;;;5017308;28;19970;-78
2021/06/02 14:00:44;;;;;;;;;;;24.90;67.30;;;;;;5029022;28;20375;-77
2021/06/02 14:03:09;;;;;;;;;;;24.80;67.80;;;;;;5028661;28;19919;-76
2021/06/02 14:05:35;;;;;;;;;;;24.70;68.00;;;;;;5032609;28;19917;-77
2021/06/02 14:08:00;;;;;;;;;;;24.70;69.10;;;;;;5031011;28;19910;-77
2021/06/02 14:10:26;;;;;;;;;;;24.80;70.10;;;;;;5021501;28;19935;-77
2021/06/02 14:12:51;;;;;;;;;;;24.90;68.90;;;;;;5029894;28;19916;-78
2021/06/02 14:15:19;;;;;;;;;;;25.00;68.80;;;;;;5028729;28;20096;-79
2021/06/02 14:17:46;;;;;;;;;;;25.00;67.80;;;;;;5025916;28;19913;-79
2021/06/02 14:20:12;;;;;;;;;;;25.00;69.00;;;;;;5027082;28;20012;-77
2021/06/02 14:22:40;;;;;;;;;;;25.00;69.00;;;;;;5036969;28;19956;-77
2021/06/02 14:25:08;;;;;;;;;;;25.00;68.20;;;;;;5028565;28;19918;-76
2021/06/02 14:27:34;;;;;;;;;;;25.00;68.20;;;;;;5026868;28;19917;-77
2021/06/02 14:29:59;;;;;;;;;;;24.90;67.20;;;;;;5036608;22;19968;-61
2021/06/02 14:32:25;;;;;;;;;;;24.90;66.90;;;;;;5027671;28;19919;-62
2021/06/02 14:34:51;;;;;;;;;;;24.80;69.80;;;;;;5027421;28;20320;-60
2021/06/02 14:37:16;;;;;;;;;;;24.80;67.80;;;;;;5022748;28;20308;-62
2021/06/02 14:39:43;;;;;;;;;;;24.90;68.80;;;;;;5012144;28;19909;-62
2021/06/02 14:42:09;;;;;;;;;;;25.00;69.00;;;;;;5010129;28;19963;-62
2021/06/02 14:44:34;;;;;;;;;;;25.10;69.10;;;;;;5030314;28;19909;-59
2021/06/02 14:47:04;;;;;;;;;;;25.20;67.90;;;;;;5029954;28;20384;-60
2021/06/02 14:49:30;;;;;;;;;;;25.20;66.80;;;;;;5024092;28;20375;-60
2021/06/02 14:51:57;;;;;;;;;;;25.30;67.90;;;;;;5020730;28;19920;-60
2021/06/02 14:54:23;;;;;;;;;;;25.30;65.10;;;;;;5051773;22;19940;-58
2021/06/02 14:56:48;;;;;;;;;;;25.20;65.70;;;;;;5049542;28;19913;-59
2021/06/02 14:59:14;;;;;;;;;;;25.20;65.70;;;;;;5050097;28;19916;-59
2021/06/02 15:01:39;;;;;;;;;;;25.10;64.20;;;;;;5049839;28;19909;-57
2021/06/02 15:04:05;;;;;;;;;;;25.10;64.60;;;;;;5043164;28;19956;-57
2021/06/02 15:06:30;;;;;;;;;;;25.10;66.20;;;;;;5024071;28;19913;-57
2021/06/02 15:08:56;;;;;;;;;;;25.00;64.60;;;;;;5010478;28;19918;-58
2021/06/02 15:11:21;;;;;;;;;;;25.00;65.90;;;;;;5010302;28;19921;-60
2021/06/02 15:13:47;;;;;;;;;;;24.80;66.50;;;;;;5018354;28;20327;-58
2021/06/02 15:16:15;;;;;;;;;;;24.70;67.40;;;;;;5011950;28;19944;-58
2021/06/02 15:18:41;;;;;;;;;;;24.70;66.00;;;;;;5030176;28;19956;-58
2021/06/02 15:21:06;;;;;;;;;;;24.70;66.40;;;;;;5029433;28;19944;-57
2021/06/02 15:23:32;;;;;;;;;;;24.70;65.50;;;;;;5029772;28;19919;-57
2021/06/02 15:25:58;;;;;;;;;;;24.60;67.10;;;;;;5028230;28;20449;-59
2021/06/02 15:28:36;;;;;;;;;;;24.50;66.30;;;;;;5028616;28;19909;-57
2021/06/02 15:31:05;;;;;;;;;;;24.50;67.90;;;;;;5029661;28;20295;-58
2021/06/02 15:33:31;;;;;;;;;;;24.50;67.40;;;;;;5029877;28;19909;-57
2021/06/02 15:35:57;;;;;;;;;;;24.50;67.50;;;;;;5028815;28;19913;-59
2021/06/02 15:38:24;;;;;;;;;;;24.50;68.30;;;;;;5028983;28;19916;-57
2021/06/02 15:40:55;;;;;;;;;;;24.40;67.20;;;;;;5029275;28;19909;-58
2021/06/02 15:43:21;;;;;;;;;;;24.40;67.60;;;;;;5028495;28;19936;-59
2021/06/02 15:45:46;;;;;;;;;;;24.30;68.40;;;;;;5028196;28;19981;-59
2021/06/02 15:48:12;;;;;;;;;;;24.20;68.30;;;;;;5030000;28;19952;-59
2021/06/02 15:50:38;;;;;;;;;;;24.10;69.60;;;;;;5029255;28;19948;-57
2021/06/02 15:53:04;;;;;;;;;;;24.10;68.80;;;;;;5029514;28;19909;-59
2021/06/02 15:55:30;;;;;;;;;;;24.10;70.10;;;;;;5029740;28;19962;-56
2021/06/02 15:57:59;;;;;;;;;;;24.10;68.60;;;;;;5028008;28;19913;-58
2021/06/02 16:00:25;;;;;;;;;;;24.10;68.80;;;;;;5027958;28;19956;-59
2021/06/02 16:02:51;;;;;;;;;;;24.10;68.20;;;;;;5026703;28;19941;-59
2021/06/02 16:05:17;;;;;;;;;;;24.00;68.80;;;;;;5027692;28;19909;-57
2021/06/02 16:07:43;;;;;;;;;;;24.00;70.10;;;;;;5029165;28;20460;-58
2021/06/02 16:10:09;;;;;;;;;;;24.00;70.10;;;;;;5029186;28;19909;-58
2021/06/02 16:12:35;;;;;;;;;;;24.00;70.00;;;;;;5028977;28;19913;-59
2021/06/02 16:15:01;;;;;;;;;;;24.00;70.10;;;;;;5027939;28;20140;-55
2021/06/02 16:17:27;;;;;;;;;;;24.00;68.80;;;;;;5028999;28;20427;-57
2021/06/02 16:19:52;;;;;;;;;;;23.90;68.50;;;;;;5028394;28;19931;-58
2021/06/02 16:22:22;;;;;;;;;;;23.80;69.80;;;;;;5029258;28;19956;-57
2021/06/02 16:24:47;;;;;;;;;;;23.80;70.00;;;;;;5027026;28;20276;-56
2021/06/02 16:27:14;;;;;;;;;;;23.80;69.10;;;;;;5027080;28;19913;-58
2021/06/02 16:29:40;;;;;;;;;;;23.70;70.50;;;;;;5012751;28;19918;-58
2021/06/02 16:32:06;;;;;;;;;;;23.70;70.60;;;;;;5027239;28;19917;-58
2021/06/02 16:34:32;;;;;;;;;;;23.80;70.80;;;;;;5028430;28;19909;-59
2021/06/02 16:36:58;;;;;;;;;;;23.80;70.90;;;;;;5028692;28;19909;-59
2021/06/02 16:39:24;;;;;;;;;;;23.80;70.90;;;;;;5028405;28;20335;-58
2021/06/02 16:41:49;;;;;;;;;;;23.80;71.70;;;;;;5028712;28;20022;-58
2021/06/02 16:44:15;;;;;;;;;;;23.80;71.00;;;;;;5027311;28;20007;-57
2021/06/02 16:46:41;;;;;;;;;;;23.80;71.60;;;;;;5028681;28;19909;-58
2021/06/02 16:49:06;;;;;;;;;;;23.80;73.80;;;;;;5028352;28;20394;-59
2021/06/02 16:51:33;;;;;;;;;;;23.80;73.00;;;;;;5028211;28;19913;-57
2021/06/02 16:53:58;;;;;;;;;;;23.80;73.80;;;;;;5025713;28;19913;-58
2021/06/02 16:56:25;;;;;;;;;;;23.80;72.00;;;;;;5026868;28;20088;-59
2021/06/02 16:58:51;;;;;;;;;;;23.80;72.70;;;;;;5027356;28;19909;-58
2021/06/02 17:01:19;;;;;;;;;;;23.70;72.90;;;;;;5026273;28;20066;-58
2021/06/02 17:03:45;;;;;;;;;;;23.80;73.00;;;;;;5026622;28;19905;-58
2021/06/02 17:06:10;;;;;;;;;;;23.80;72.80;;;;;;5028036;28;19909;-58
2021/06/02 17:08:38;;;;;;;;;;;23.80;71.80;;;;;;5027106;28;19913;-58
2021/06/02 17:11:04;;;;;;;;;;;23.80;72.60;;;;;;5027949;28;19964;-59